KTYQKBMG

Guest
Details From KTYQ - Indianapolis Executive
To KBMG - Monroe Co
Flight Number -
Tags generated
Created
Modified
Stats Distance 56 nm / 104 km
Max Altitude 5,000 ft / 1,524 m
Waypoints 3
Social Downloads 1
Likes 0
Share VATSIM

Download

Looking for another format? Having issues loading an existing format? Contact us
Advertisement - Login to hide

Notes

Basic altitude profile: - Ascent Rate: 2500ft/min - Ascent Speed: 250kts - Cruise Altitude: 35000ft - Cruise Speed: 420kts - Descent Rate: 1500ft/min - Descent Speed: 250kts Options: - Use NATs: yes - Use PACOTS: yes - Use low airways: yes - Use high airways: no

Route

KTYQ VHP KBMG

ID Type Via Altitude Latitude Longitude Leg Dist Tot Dist Heading (true) Name
O KTYQ APT - 0 ft / 0 m 40.03067˚ -86.25143˚ - 0 nm - Indianapolis Executive
VHP VOR - 5,000 ft / 1,524 m 39.81472˚ -86.36747˚ 14 nm 14 nm 202° / 202° BRICKYARD VORTAC
O KBMG APT - 0 ft / 0 m 39.14483˚ -86.61678˚ 41 nm 55 nm 196° / 196° Monroe Co

Altitude Profile

Advertisement - Login to hide

KTYQ

Details ICAO KTYQ
Name Indianapolis Executive
Region United States
Timezone America/Indiana/Indianapolis (UTC-5.0)
Stats Elevation 922 ft / 281 m (AMSL)
Location 40.030668° -86.251435°
Runways 1
Magnetic Variation 4.709° W

METAR

KTYQ 150440Z AUTO 17003KT 10SM BKN040 M07/M09 A3006 RMK AO2 T10671090

Decode

TAF

Not found

Departure Runways

ID Width Length Bearing (true) Bearing (mag) Surface Threshold Offset Overrun Length
18 100 ft / 30 m 5,510 ft / 1,679 m 179.47° 184.18° Asphalt 0 ft / 0 m 0 ft / 0 m
36 100 ft / 30 m 5,510 ft / 1,679 m 359.47° 4.18° Asphalt 157 ft / 48 m 0 ft / 0 m

KBMG

Details ICAO KBMG (BMG)
Name Monroe Co
Region United States
Timezone America/Indiana/Indianapolis (UTC-5.0)
Stats Elevation 846 ft / 258 m (AMSL)
Location 39.144829° -86.616782°
Runways 2
Magnetic Variation 4.298° W

METAR

KBMG 150353Z AUTO 00000KT 10SM CLR M05/M09 A3008 RMK AO2 SLP193 T10501089

Decode

TAF

TAF KBMG 142357Z 1500/1524 VRB03KT P6SM BKN200 FM151200 24006KT P6SM BKN050 FM151400 26008KT P6SM SCT060 FM151900 27012G22KT P6SM BKN035 FM152200 27010KT P6SM SCT080 AMD LTD TO CLD VIS AND WIND 1502/1514

Decode

Destination Runways

ID Width Length Bearing (true) Bearing (mag) Surface Threshold Offset Overrun Length
06 98 ft / 30 m 3,818 ft / 1,164 m 61.73° 66.03° Asphalt 305 ft / 93 m 0 ft / 0 m
17 151 ft / 46 m 6,512 ft / 1,985 m 171.69° 175.99° Asphalt 0 ft / 0 m 0 ft / 0 m
24 98 ft / 30 m 3,818 ft / 1,164 m 241.73° 246.03° Asphalt 223 ft / 68 m 0 ft / 0 m
35 151 ft / 46 m 6,512 ft / 1,985 m 351.69° 355.99° Asphalt 0 ft / 0 m 0 ft / 0 m

Approach Navaids

Runway Type Ident Frequency Range Bearing (true) Bearing (mag) Slope Elevation
35 Localiser IBMG 108.30 MHz 18 nm / 33 km 351.90° 356.20° - 846 ft / 258 m (AMSL)
35 Glidescope IBMG 108.30 MHz 10 nm / 19 km 351.69° 355.99° 3.00° 837 ft / 255 m (AMSL)